sensor_id;sensor_type;location;lat;lon;timestamp;temperature;humidity
68943;DHT22;60852;52.190;4.422;2023-05-16T00:00:03;10.99;68.25
68943;DHT22;60852;52.190;4.422;2023-05-16T00:02:36;10.99;68.36
68943;DHT22;60852;52.190;4.422;2023-05-16T00:05:04;10.96;68.40
68943;DHT22;60852;52.190;4.422;2023-05-16T00:07:32;10.95;68.10
68943;DHT22;60852;52.190;4.422;2023-05-16T00:09:58;10.93;68.02
68943;DHT22;60852;52.190;4.422;2023-05-16T00:12:24;10.95;68.52
68943;DHT22;60852;52.190;4.422;2023-05-16T00:14:49;10.93;68.84
68943;DHT22;60852;52.190;4.422;2023-05-16T00:17:17;10.95;69.10
68943;DHT22;60852;52.190;4.422;2023-05-16T00:19:45;10.93;69.23
68943;DHT22;60852;52.190;4.422;2023-05-16T00:22:14;10.91;68.82
68943;DHT22;60852;52.190;4.422;2023-05-16T00:24:40;10.83;68.75
68943;DHT22;60852;52.190;4.422;2023-05-16T00:27:06;10.86;68.63
68943;DHT22;60852;52.190;4.422;2023-05-16T00:29:33;10.92;68.81
68943;DHT22;60852;52.190;4.422;2023-05-16T00:31:58;10.89;68.86
68943;DHT22;60852;52.190;4.422;2023-05-16T00:34:24;10.89;68.97
68943;DHT22;60852;52.190;4.422;2023-05-16T00:36:49;10.82;69.06
68943;DHT22;60852;52.190;4.422;2023-05-16T00:39:15;10.81;69.35
68943;DHT22;60852;52.190;4.422;2023-05-16T00:41:41;10.82;68.20
68943;DHT22;60852;52.190;4.422;2023-05-16T00:44:06;10.86;67.37
68943;DHT22;60852;52.190;4.422;2023-05-16T00:46:32;10.83;66.89
68943;DHT22;60852;52.190;4.422;2023-05-16T00:48:58;10.78;66.46
68943;DHT22;60852;52.190;4.422;2023-05-16T00:51:24;10.78;66.51
68943;DHT22;60852;52.190;4.422;2023-05-16T00:53:50;10.78;66.98
68943;DHT22;60852;52.190;4.422;2023-05-16T00:56:16;10.76;67.13
68943;DHT22;60852;52.190;4.422;2023-05-16T00:58:42;10.75;67.36
68943;DHT22;60852;52.190;4.422;2023-05-16T01:01:08;10.78;67.81
68943;DHT22;60852;52.190;4.422;2023-05-16T01:03:33;10.78;68.35
68943;DHT22;60852;52.190;4.422;2023-05-16T01:05:59;10.82;68.46
68943;DHT22;60852;52.190;4.422;2023-05-16T01:08:25;10.79;68.19
68943;DHT22;60852;52.190;4.422;2023-05-16T01:11:02;10.79;68.40
68943;DHT22;60852;52.190;4.422;2023-05-16T01:16:49;10.78;68.76
68943;DHT22;60852;52.190;4.422;2023-05-16T01:20:07;10.86;68.17
68943;DHT22;60852;52.190;4.422;2023-05-16T01:28:01;11.06;68.96
68943;DHT22;60852;52.190;4.422;2023-05-16T01:30:34;11.09;69.61
68943;DHT22;60852;52.190;4.422;2023-05-16T01:32:59;11.08;69.27
68943;DHT22;60852;52.190;4.422;2023-05-16T01:35:25;10.93;68.81
68943;DHT22;60852;52.190;4.422;2023-05-16T01:38:05;10.88;68.10
68943;DHT22;60852;52.190;4.422;2023-05-16T01:40:48;10.76;67.93
68943;DHT22;60852;52.190;4.422;2023-05-16T01:43:22;10.75;67.12
68943;DHT22;60852;52.190;4.422;2023-05-16T01:45:56;10.73;67.44
68943;DHT22;60852;52.190;4.422;2023-05-16T01:48:31;10.78;67.76
68943;DHT22;60852;52.190;4.422;2023-05-16T01:51:02;10.76;68.07
68943;DHT22;60852;52.190;4.422;2023-05-16T01:53:35;10.78;68.31
68943;DHT22;60852;52.190;4.422;2023-05-16T01:56:01;10.76;68.01
68943;DHT22;60852;52.190;4.422;2023-05-16T01:58:32;10.79;67.94
68943;DHT22;60852;52.190;4.422;2023-05-16T02:01:03;10.79;67.23
68943;DHT22;60852;52.190;4.422;2023-05-16T02:03:32;10.76;67.49
68943;DHT22;60852;52.190;4.422;2023-05-16T02:05:58;10.69;67.64
68943;DHT22;60852;52.190;4.422;2023-05-16T02:08:24;10.71;67.84
68943;DHT22;60852;52.190;4.422;2023-05-16T02:10:51;10.75;67.76
68943;DHT22;60852;52.190;4.422;2023-05-16T02:13:17;10.75;68.08
68943;DHT22;60852;52.190;4.422;2023-05-16T02:15:42;10.78;67.71
68943;DHT22;60852;52.190;4.422;2023-05-16T02:18:08;10.81;67.73
68943;DHT22;60852;52.190;4.422;2023-05-16T02:20:34;10.76;68.39
68943;DHT22;60852;52.190;4.422;2023-05-16T02:23:00;10.79;69.21
68943;DHT22;60852;52.190;4.422;2023-05-16T02:25:25;10.86;69.92
68943;DHT22;60852;52.190;4.422;2023-05-16T02:27:51;10.86;69.90
68943;DHT22;60852;52.190;4.422;2023-05-16T02:30:16;10.72;69.64
68943;DHT22;60852;52.190;4.422;2023-05-16T02:32:42;10.71;69.31
68943;DHT22;60852;52.190;4.422;2023-05-16T02:35:10;10.79;68.91
68943;DHT22;60852;52.190;4.422;2023-05-16T02:37:36;10.75;67.28
68943;DHT22;60852;52.190;4.422;2023-05-16T02:40:03;10.65;66.61
68943;DHT22;60852;52.190;4.422;2023-05-16T02:42:30;10.71;66.82
68943;DHT22;60852;52.190;4.422;2023-05-16T02:44:56;10.72;66.65
68943;DHT22;60852;52.190;4.422;2023-05-16T02:47:22;10.67;66.87
68943;DHT22;60852;52.190;4.422;2023-05-16T02:49:47;10.71;67.18
68943;DHT22;60852;52.190;4.422;2023-05-16T02:52:13;10.72;68.27
68943;DHT22;60852;52.190;4.422;2023-05-16T02:54:38;10.76;68.70
68943;DHT22;60852;52.190;4.422;2023-05-16T02:57:04;10.76;68.46
68943;DHT22;60852;52.190;4.422;2023-05-16T02:59:29;10.72;68.06
68943;DHT22;60852;52.190;4.422;2023-05-16T03:01:55;10.64;67.68
68943;DHT22;60852;52.190;4.422;2023-05-16T03:04:20;10.61;67.86
68943;DHT22;60852;52.190;4.422;2023-05-16T03:06:47;10.60;67.41
68943;DHT22;60852;52.190;4.422;2023-05-16T03:09:12;10.60;67.42
68943;DHT22;60852;52.190;4.422;2023-05-16T03:11:37;10.67;67.44
68943;DHT22;60852;52.190;4.422;2023-05-16T03:14:03;10.67;67.38
68943;DHT22;60852;52.190;4.422;2023-05-16T03:16:28;10.71;67.92
68943;DHT22;60852;52.190;4.422;2023-05-16T03:18:54;10.67;68.37
68943;DHT22;60852;52.190;4.422;2023-05-16T03:21:20;10.72;68.21
68943;DHT22;60852;52.190;4.422;2023-05-16T03:23:45;10.64;67.52
68943;DHT22;60852;52.190;4.422;2023-05-16T03:26:11;10.68;67.37
68943;DHT22;60852;52.190;4.422;2023-05-16T03:28:36;10.67;67.70
68943;DHT22;60852;52.190;4.422;2023-05-16T03:31:02;10.73;68.05
68943;DHT22;60852;52.190;4.422;2023-05-16T03:33:27;10.76;68.22
68943;DHT22;60852;52.190;4.422;2023-05-16T03:35:52;10.79;68.37
68943;DHT22;60852;52.190;4.422;2023-05-16T03:38:18;10.76;68.69
68943;DHT22;60852;52.190;4.422;2023-05-16T03:40:43;10.79;69.00
68943;DHT22;60852;52.190;4.422;2023-05-16T03:43:09;10.67;68.44
68943;DHT22;60852;52.190;4.422;2023-05-16T03:45:35;10.64;68.32
68943;DHT22;60852;52.190;4.422;2023-05-16T03:48:00;10.68;68.37
68943;DHT22;60852;52.190;4.422;2023-05-16T03:50:26;10.71;68.28
68943;DHT22;60852;52.190;4.422;2023-05-16T03:52:51;10.73;67.85
68943;DHT22;60852;52.190;4.422;2023-05-16T03:55:18;10.68;67.66
68943;DHT22;60852;52.190;4.422;2023-05-16T03:57:44;10.69;67.29
68943;DHT22;60852;52.190;4.422;2023-05-16T04:00:10;10.79;66.81
68943;DHT22;60852;52.190;4.422;2023-05-16T04:02:39;10.68;67.10
68943;DHT22;60852;52.190;4.422;2023-05-16T04:05:06;10.67;67.02
68943;DHT22;60852;52.190;4.422;2023-05-16T04:07:32;10.67;67.31
68943;DHT22;60852;52.190;4.422;2023-05-16T04:09:58;10.69;67.43
68943;DHT22;60852;52.190;4.422;2023-05-16T04:12:23;10.73;67.64
68943;DHT22;60852;52.190;4.422;2023-05-16T04:14:49;10.82;67.68
68943;DHT22;60852;52.190;4.422;2023-05-16T04:17:14;10.93;67.95
68943;DHT22;60852;52.190;4.422;2023-05-16T04:19:40;10.96;68.46
68943;DHT22;60852;52.190;4.422;2023-05-16T04:22:05;11.03;68.85
68943;DHT22;60852;52.190;4.422;2023-05-16T04:24:32;11.06;68.83
68943;DHT22;60852;52.190;4.422;2023-05-16T04:26:57;11.15;68.84
68943;DHT22;60852;52.190;4.422;2023-05-16T04:29:23;11.20;68.64
68943;DHT22;60852;52.190;4.422;2023-05-16T04:31:48;11.22;68.85
68943;DHT22;60852;52.190;4.422;2023-05-16T04:34:14;11.29;68.46
68943;DHT22;60852;52.190;4.422;2023-05-16T04:36:40;11.26;67.99
68943;DHT22;60852;52.190;4.422;2023-05-16T04:39:06;11.24;67.41
68943;DHT22;60852;52.190;4.422;2023-05-16T04:41:32;11.26;67.17
68943;DHT22;60852;52.190;4.422;2023-05-16T04:44:00;11.20;66.24
68943;DHT22;60852;52.190;4.422;2023-05-16T04:46:26;11.27;66.61
68943;DHT22;60852;52.190;4.422;2023-05-16T04:48:52;11.29;66.47
68943;DHT22;60852;52.190;4.422;2023-05-16T04:51:17;11.31;66.74
68943;DHT22;60852;52.190;4.422;2023-05-16T04:53:42;11.57;67.21
68943;DHT22;60852;52.190;4.422;2023-05-16T04:56:08;11.71;66.39
68943;DHT22;60852;52.190;4.422;2023-05-16T04:58:33;12.04;65.25
68943;DHT22;60852;52.190;4.422;2023-05-16T05:00:59;12.14;64.30
68943;DHT22;60852;52.190;4.422;2023-05-16T05:03:24;11.88;65.56
68943;DHT22;60852;52.190;4.422;2023-05-16T05:05:50;12.19;65.75
68943;DHT22;60852;52.190;4.422;2023-05-16T05:08:17;13.07;63.17
68943;DHT22;60852;52.190;4.422;2023-05-16T05:10:43;12.80;63.67
68943;DHT22;60852;52.190;4.422;2023-05-16T05:13:10;12.32;65.08
68943;DHT22;60852;52.190;4.422;2023-05-16T05:15:35;12.38;65.55
68943;DHT22;60852;52.190;4.422;2023-05-16T05:18:01;12.52;65.93
68943;DHT22;60852;52.190;4.422;2023-05-16T05:20:26;12.40;66.00
68943;DHT22;60852;52.190;4.422;2023-05-16T05:22:51;12.29;66.07
68943;DHT22;60852;52.190;4.422;2023-05-16T05:25:17;12.02;67.18
68943;DHT22;60852;52.190;4.422;2023-05-16T05:27:42;11.90;67.17
68943;DHT22;60852;52.190;4.422;2023-05-16T05:30:08;11.87;67.77
68943;DHT22;60852;52.190;4.422;2023-05-16T05:32:34;11.88;67.77
68943;DHT22;60852;52.190;4.422;2023-05-16T05:34:59;11.81;67.78
68943;DHT22;60852;52.190;4.422;2023-05-16T05:37:25;11.91;67.61
68943;DHT22;60852;52.190;4.422;2023-05-16T05:39:51;12.21;67.55
68943;DHT22;60852;52.190;4.422;2023-05-16T05:42:16;12.50;65.84
68943;DHT22;60852;52.190;4.422;2023-05-16T05:44:42;12.39;65.90
68943;DHT22;60852;52.190;4.422;2023-05-16T05:47:07;12.83;65.15
68943;DHT22;60852;52.190;4.422;2023-05-16T05:49:33;13.76;61.00
68943;DHT22;60852;52.190;4.422;2023-05-16T05:52:00;14.36;58.73
68943;DHT22;60852;52.190;4.422;2023-05-16T05:54:26;13.38;61.51
68943;DHT22;60852;52.190;4.422;2023-05-16T05:56:51;13.18;61.82
68943;DHT22;60852;52.190;4.422;2023-05-16T05:59:17;13.86;60.85
68943;DHT22;60852;52.190;4.422;2023-05-16T06:01:42;14.49;58.49
68943;DHT22;60852;52.190;4.422;2023-05-16T06:04:09;14.75;59.11
68943;DHT22;60852;52.190;4.422;2023-05-16T06:06:34;15.18;56.47
68943;DHT22;60852;52.190;4.422;2023-05-16T06:09:00;14.84;57.49
68943;DHT22;60852;52.190;4.422;2023-05-16T06:11:26;14.38;58.47
68943;DHT22;60852;52.190;4.422;2023-05-16T06:13:51;13.93;60.09
68943;DHT22;60852;52.190;4.422;2023-05-16T06:16:17;13.62;61.14
68943;DHT22;60852;52.190;4.422;2023-05-16T06:18:43;13.44;61.06
68943;DHT22;60852;52.190;4.422;2023-05-16T06:21:09;13.15;62.13
68943;DHT22;60852;52.190;4.422;2023-05-16T06:23:34;13.00;62.82
68943;DHT22;60852;52.190;4.422;2023-05-16T06:26:01;12.84;63.83
68943;DHT22;60852;52.190;4.422;2023-05-16T06:28:28;12.79;63.76
68943;DHT22;60852;52.190;4.422;2023-05-16T06:30:53;12.76;63.86
68943;DHT22;60852;52.190;4.422;2023-05-16T06:33:19;12.72;63.44
68943;DHT22;60852;52.190;4.422;2023-05-16T06:35:45;12.64;62.84
68943;DHT22;60852;52.190;4.422;2023-05-16T06:38:13;12.63;63.74
68943;DHT22;60852;52.190;4.422;2023-05-16T06:40:39;12.55;64.07
68943;DHT22;60852;52.190;4.422;2023-05-16T06:43:04;12.49;64.99
68943;DHT22;60852;52.190;4.422;2023-05-16T06:45:30;12.55;64.73
68943;DHT22;60852;52.190;4.422;2023-05-16T06:47:56;12.49;64.48
68943;DHT22;60852;52.190;4.422;2023-05-16T06:50:22;12.55;63.63
68943;DHT22;60852;52.190;4.422;2023-05-16T06:52:47;12.49;63.81
68943;DHT22;60852;52.190;4.422;2023-05-16T06:55:13;12.55;63.86
68943;DHT22;60852;52.190;4.422;2023-05-16T06:57:38;12.52;64.14
68943;DHT22;60852;52.190;4.422;2023-05-16T07:00:05;12.57;64.34
68943;DHT22;60852;52.190;4.422;2023-05-16T07:02:31;12.64;64.16
68943;DHT22;60852;52.190;4.422;2023-05-16T07:04:56;12.61;63.70
68943;DHT22;60852;52.190;4.422;2023-05-16T07:07:22;12.66;64.36
68943;DHT22;60852;52.190;4.422;2023-05-16T07:09:47;12.63;63.74
68943;DHT22;60852;52.190;4.422;2023-05-16T07:12:13;12.55;64.64
68943;DHT22;60852;52.190;4.422;2023-05-16T07:14:38;12.45;64.49
68943;DHT22;60852;52.190;4.422;2023-05-16T07:17:05;12.56;64.65
68943;DHT22;60852;52.190;4.422;2023-05-16T07:19:30;12.52;64.06
68943;DHT22;60852;52.190;4.422;2023-05-16T07:21:56;12.49;63.54
68943;DHT22;60852;52.190;4.422;2023-05-16T07:24:22;12.53;63.05
68943;DHT22;60852;52.190;4.422;2023-05-16T07:26:47;12.64;64.27
68943;DHT22;60852;52.190;4.422;2023-05-16T07:29:13;12.72;63.54
68943;DHT22;60852;52.190;4.422;2023-05-16T07:31:38;12.69;64.09
68943;DHT22;60852;52.190;4.422;2023-05-16T07:34:04;12.83;64.05
68943;DHT22;60852;52.190;4.422;2023-05-16T07:36:29;12.93;63.85
68943;DHT22;60852;52.190;4.422;2023-05-16T07:38:55;13.24;63.61
68943;DHT22;60852;52.190;4.422;2023-05-16T07:41:20;13.38;62.51
68943;DHT22;60852;52.190;4.422;2023-05-16T07:43:46;13.38;62.23
68943;DHT22;60852;52.190;4.422;2023-05-16T07:46:11;13.15;61.87
68943;DHT22;60852;52.190;4.422;2023-05-16T07:48:38;13.14;62.36
68943;DHT22;60852;52.190;4.422;2023-05-16T07:51:03;13.17;62.28
68943;DHT22;60852;52.190;4.422;2023-05-16T07:53:29;13.03;62.36
68943;DHT22;60852;52.190;4.422;2023-05-16T07:55:54;13.21;62.66
68943;DHT22;60852;52.190;4.422;2023-05-16T07:58:20;13.12;62.28
68943;DHT22;60852;52.190;4.422;2023-05-16T08:00:46;13.17;62.41
68943;DHT22;60852;52.190;4.422;2023-05-16T08:03:12;13.35;62.91
68943;DHT22;60852;52.190;4.422;2023-05-16T08:05:37;13.22;62.51
68943;DHT22;60852;52.190;4.422;2023-05-16T08:08:04;13.18;62.66
68943;DHT22;60852;52.190;4.422;2023-05-16T08:10:30;13.19;62.81
68943;DHT22;60852;52.190;4.422;2023-05-16T08:12:55;13.03;62.97
68943;DHT22;60852;52.190;4.422;2023-05-16T08:15:20;13.14;63.76
68943;DHT22;60852;52.190;4.422;2023-05-16T08:17:46;13.21;63.16
68943;DHT22;60852;52.190;4.422;2023-05-16T08:20:12;13.28;62.35
68943;DHT22;60852;52.190;4.422;2023-05-16T08:22:37;13.22;61.82
68943;DHT22;60852;52.190;4.422;2023-05-16T08:25:03;13.19;62.51
68943;DHT22;60852;52.190;4.422;2023-05-16T08:27:29;13.06;61.62
68943;DHT22;60852;52.190;4.422;2023-05-16T08:29:55;12.97;61.97
68943;DHT22;60852;52.190;4.422;2023-05-16T08:32:21;12.93;63.87
68943;DHT22;60852;52.190;4.422;2023-05-16T08:34:46;12.94;64.69
68943;DHT22;60852;52.190;4.422;2023-05-16T08:37:12;13.03;64.30
68943;DHT22;60852;52.190;4.422;2023-05-16T08:39:38;13.03;62.61
68943;DHT22;60852;52.190;4.422;2023-05-16T08:42:03;13.08;62.41
68943;DHT22;60852;52.190;4.422;2023-05-16T08:44:30;13.18;63.08
68943;DHT22;60852;52.190;4.422;2023-05-16T08:46:56;13.39;63.19
68943;DHT22;60852;52.190;4.422;2023-05-16T08:49:22;13.47;62.73
68943;DHT22;60852;52.190;4.422;2023-05-16T08:51:56;13.45;62.83
68943;DHT22;60852;52.190;4.422;2023-05-16T08:54:23;13.35;62.23
68943;DHT22;60852;52.190;4.422;2023-05-16T08:56:49;13.28;63.22
68943;DHT22;60852;52.190;4.422;2023-05-16T08:59:16;13.11;63.74
68943;DHT22;60852;52.190;4.422;2023-05-16T09:01:42;13.14;64.80
68943;DHT22;60852;52.190;4.422;2023-05-16T09:04:08;13.12;63.98
68943;DHT22;60852;52.190;4.422;2023-05-16T09:06:35;13.01;64.78
68943;DHT22;60852;52.190;4.422;2023-05-16T09:09:00;13.12;63.64
68943;DHT22;60852;52.190;4.422;2023-05-16T09:11:27;13.28;63.43
68943;DHT22;60852;52.190;4.422;2023-05-16T09:13:53;13.45;63.40
68943;DHT22;60852;52.190;4.422;2023-05-16T09:16:19;13.59;62.89
68943;DHT22;60852;52.190;4.422;2023-05-16T09:18:58;13.47;61.70
68943;DHT22;60852;52.190;4.422;2023-05-16T09:21:32;13.41;62.68
68943;DHT22;60852;52.190;4.422;2023-05-16T09:24:05;13.38;62.84
68943;DHT22;60852;52.190;4.422;2023-05-16T09:26:32;13.49;63.92
68943;DHT22;60852;52.190;4.422;2023-05-16T09:28:57;13.58;62.75
68943;DHT22;60852;52.190;4.422;2023-05-16T09:31:25;13.72;62.18
68943;DHT22;60852;52.190;4.422;2023-05-16T09:33:52;13.70;62.16
68943;DHT22;60852;52.190;4.422;2023-05-16T09:36:17;13.79;61.95
68943;DHT22;60852;52.190;4.422;2023-05-16T09:38:43;13.70;60.98
68943;DHT22;60852;52.190;4.422;2023-05-16T09:41:11;13.63;61.32
68943;DHT22;60852;52.190;4.422;2023-05-16T09:43:39;13.66;61.47
68943;DHT22;60852;52.190;4.422;2023-05-16T09:46:04;13.72;61.82
68943;DHT22;60852;52.190;4.422;2023-05-16T09:48:31;13.77;62.10
68943;DHT22;60852;52.190;4.422;2023-05-16T09:50:57;13.99;61.77
68943;DHT22;60852;52.190;4.422;2023-05-16T09:53:30;14.09;61.26
68943;DHT22;60852;52.190;4.422;2023-05-16T09:56:04;14.34;61.32
68943;DHT22;60852;52.190;4.422;2023-05-16T09:58:31;14.95;57.73
68943;DHT22;60852;52.190;4.422;2023-05-16T10:00:57;15.34;57.30
68943;DHT22;60852;52.190;4.422;2023-05-16T10:03:24;15.71;55.84
68943;DHT22;60852;52.190;4.422;2023-05-16T10:05:51;15.88;54.53
68943;DHT22;60852;52.190;4.422;2023-05-16T10:08:20;16.30;54.45
68943;DHT22;60852;52.190;4.422;2023-05-16T10:10:50;15.93;54.99
68943;DHT22;60852;52.190;4.422;2023-05-16T10:13:18;16.08;54.79
68943;DHT22;60852;52.190;4.422;2023-05-16T10:15:46;16.14;54.73
68943;DHT22;60852;52.190;4.422;2023-05-16T10:18:13;16.02;55.38
68943;DHT22;60852;52.190;4.422;2023-05-16T10:20:41;16.51;54.52
68943;DHT22;60852;52.190;4.422;2023-05-16T10:23:13;16.23;55.17
68943;DHT22;60852;52.190;4.422;2023-05-16T10:25:40;16.25;53.72
68943;DHT22;60852;52.190;4.422;2023-05-16T10:28:07;16.29;54.75
68943;DHT22;60852;52.190;4.422;2023-05-16T10:30:33;16.64;54.31
68943;DHT22;60852;52.190;4.422;2023-05-16T10:33:01;16.83;52.85
68943;DHT22;60852;52.190;4.422;2023-05-16T10:35:29;16.88;52.44
68943;DHT22;60852;52.190;4.422;2023-05-16T10:37:55;16.94;51.71
68943;DHT22;60852;52.190;4.422;2023-05-16T10:40:21;16.69;52.86
68943;DHT22;60852;52.190;4.422;2023-05-16T10:42:55;16.62;54.28
68943;DHT22;60852;52.190;4.422;2023-05-16T10:45:20;16.64;52.79
68943;DHT22;60852;52.190;4.422;2023-05-16T10:50:33;16.62;53.61
68943;DHT22;60852;52.190;4.422;2023-05-16T10:53:18;16.06;55.49
68943;DHT22;60852;52.190;4.422;2023-05-16T10:55:48;15.70;58.05
68943;DHT22;60852;52.190;4.422;2023-05-16T10:58:22;15.42;56.71
68943;DHT22;60852;52.190;4.422;2023-05-16T11:00:48;15.42;57.43
68943;DHT22;60852;52.190;4.422;2023-05-16T11:03:23;15.57;59.21
68943;DHT22;60852;52.190;4.422;2023-05-16T11:05:53;15.44;56.58
68943;DHT22;60852;52.190;4.422;2023-05-16T11:08:24;15.22;57.79
68943;DHT22;60852;52.190;4.422;2023-05-16T11:10:49;15.20;59.34
68943;DHT22;60852;52.190;4.422;2023-05-16T11:13:23;15.29;58.30
68943;DHT22;60852;52.190;4.422;2023-05-16T11:15:48;15.37;58.84
68943;DHT22;60852;52.190;4.422;2023-05-16T11:18:15;15.55;57.59
68943;DHT22;60852;52.190;4.422;2023-05-16T11:20:41;15.54;56.76
68943;DHT22;60852;52.190;4.422;2023-05-16T11:25:44;15.57;55.64
68943;DHT22;60852;52.190;4.422;2023-05-16T11:28:12;15.53;55.74
68943;DHT22;60852;52.190;4.422;2023-05-16T11:30:46;15.49;54.71
68943;DHT22;60852;52.190;4.422;2023-05-16T11:33:12;15.36;56.62
68943;DHT22;60852;52.190;4.422;2023-05-16T11:35:38;15.44;56.15
68943;DHT22;60852;52.190;4.422;2023-05-16T11:38:03;15.42;56.56
68943;DHT22;60852;52.190;4.422;2023-05-16T11:40:29;15.50;57.94
68943;DHT22;60852;52.190;4.422;2023-05-16T11:42:59;15.68;56.48
68943;DHT22;60852;52.190;4.422;2023-05-16T11:45:27;15.58;55.36
68943;DHT22;60852;52.190;4.422;2023-05-16T11:47:53;15.57;55.27
68943;DHT22;60852;52.190;4.422;2023-05-16T11:50:21;15.57;55.67
68943;DHT22;60852;52.190;4.422;2023-05-16T11:52:52;15.67;56.91
68943;DHT22;60852;52.190;4.422;2023-05-16T11:55:26;15.68;55.76
68943;DHT22;60852;52.190;4.422;2023-05-16T11:57:53;15.61;56.62
68943;DHT22;60852;52.190;4.422;2023-05-16T12:00:23;15.67;55.43
68943;DHT22;60852;52.190;4.422;2023-05-16T12:02:51;15.70;55.50
68943;DHT22;60852;52.190;4.422;2023-05-16T12:05:19;15.81;55.57
68943;DHT22;60852;52.190;4.422;2023-05-16T12:07:49;15.80;53.95
68943;DHT22;60852;52.190;4.422;2023-05-16T12:10:16;15.64;54.35
68943;DHT22;60852;52.190;4.422;2023-05-16T12:12:45;15.32;55.11
68943;DHT22;60852;52.190;4.422;2023-05-16T12:15:12;15.22;56.48
68943;DHT22;60852;52.190;4.422;2023-05-16T12:17:39;15.30;56.28
68943;DHT22;60852;52.190;4.422;2023-05-16T12:20:07;15.23;53.85
68943;DHT22;60852;52.190;4.422;2023-05-16T12:22:47;15.34;55.41
68943;DHT22;60852;52.190;4.422;2023-05-16T12:27:59;15.53;54.50
68943;DHT22;60852;52.190;4.422;2023-05-16T12:30:26;15.51;55.44
68943;DHT22;60852;52.190;4.422;2023-05-16T12:33:07;15.51;55.16
68943;DHT22;60852;52.190;4.422;2023-05-16T12:35:37;15.60;55.89
68943;DHT22;60852;52.190;4.422;2023-05-16T12:38:03;15.54;54.11
68943;DHT22;60852;52.190;4.422;2023-05-16T12:40:30;15.34;55.35
68943;DHT22;60852;52.190;4.422;2023-05-16T12:42:55;15.37;55.69
68943;DHT22;60852;52.190;4.422;2023-05-16T12:45:21;15.39;56.40
68943;DHT22;60852;52.190;4.422;2023-05-16T12:47:47;15.25;55.40
68943;DHT22;60852;52.190;4.422;2023-05-16T12:50:14;15.36;56.08
68943;DHT22;60852;52.190;4.422;2023-05-16T12:52:58;15.33;56.18
68943;DHT22;60852;52.190;4.422;2023-05-16T12:55:23;15.43;56.41
68943;DHT22;60852;52.190;4.422;2023-05-16T12:57:49;15.49;57.11
68943;DHT22;60852;52.190;4.422;2023-05-16T13:00:19;15.53;55.96
68943;DHT22;60852;52.190;4.422;2023-05-16T13:02:46;15.49;55.91
68943;DHT22;60852;52.190;4.422;2023-05-16T13:05:13;15.43;55.78
68943;DHT22;60852;52.190;4.422;2023-05-16T13:07:39;15.44;56.41
68943;DHT22;60852;52.190;4.422;2023-05-16T13:10:09;15.60;55.50
68943;DHT22;60852;52.190;4.422;2023-05-16T13:12:36;15.58;55.13
68943;DHT22;60852;52.190;4.422;2023-05-16T13:15:01;15.50;55.10
68943;DHT22;60852;52.190;4.422;2023-05-16T13:17:27;15.30;56.51
68943;DHT22;60852;52.190;4.422;2023-05-16T13:19:54;15.22;56.58
68943;DHT22;60852;52.190;4.422;2023-05-16T13:22:20;15.12;57.31
68943;DHT22;60852;52.190;4.422;2023-05-16T13:24:45;15.20;57.49
68943;DHT22;60852;52.190;4.422;2023-05-16T13:27:14;15.39;58.47
68943;DHT22;60852;52.190;4.422;2023-05-16T13:29:39;15.30;57.73
68943;DHT22;60852;52.190;4.422;2023-05-16T13:32:05;15.32;57.19
68943;DHT22;60852;52.190;4.422;2023-05-16T13:34:32;15.27;58.88
68943;DHT22;60852;52.190;4.422;2023-05-16T13:36:58;15.15;58.28
68943;DHT22;60852;52.190;4.422;2023-05-16T13:39:23;15.10;60.23
68943;DHT22;60852;52.190;4.422;2023-05-16T13:41:49;15.30;59.53
68943;DHT22;60852;52.190;4.422;2023-05-16T13:44:15;15.42;58.40
68943;DHT22;60852;52.190;4.422;2023-05-16T13:46:41;15.44;58.35
68943;DHT22;60852;52.190;4.422;2023-05-16T13:49:06;15.50;57.72
68943;DHT22;60852;52.190;4.422;2023-05-16T13:51:32;15.47;57.63
68943;DHT22;60852;52.190;4.422;2023-05-16T13:53:58;15.49;58.14
68943;DHT22;60852;52.190;4.422;2023-05-16T13:56:23;15.49;58.88
68943;DHT22;60852;52.190;4.422;2023-05-16T13:58:50;15.50;58.79
68943;DHT22;60852;52.190;4.422;2023-05-16T14:01:16;15.54;58.58
68943;DHT22;60852;52.190;4.422;2023-05-16T14:03:41;15.57;59.52
68943;DHT22;60852;52.190;4.422;2023-05-16T14:06:07;15.49;59.37
68943;DHT22;60852;52.190;4.422;2023-05-16T14:08:33;15.40;60.96
68943;DHT22;60852;52.190;4.422;2023-05-16T14:10:59;15.49;60.96
68943;DHT22;60852;52.190;4.422;2023-05-16T14:13:24;15.64;61.03
68943;DHT22;60852;52.190;4.422;2023-05-16T14:15:50;15.77;60.89
68943;DHT22;60852;52.190;4.422;2023-05-16T14:18:16;15.81;60.22
68943;DHT22;60852;52.190;4.422;2023-05-16T14:20:42;15.85;60.56
68943;DHT22;60852;52.190;4.422;2023-05-16T14:23:07;15.81;60.42
68943;DHT22;60852;52.190;4.422;2023-05-16T14:25:33;15.74;60.39
68943;DHT22;60852;52.190;4.422;2023-05-16T14:27:58;15.73;60.93
68943;DHT22;60852;52.190;4.422;2023-05-16T14:30:24;15.61;59.68
68943;DHT22;60852;52.190;4.422;2023-05-16T14:32:50;15.57;60.62
68943;DHT22;60852;52.190;4.422;2023-05-16T14:35:16;15.60;62.69
68943;DHT22;60852;52.190;4.422;2023-05-16T14:37:41;15.65;63.08
68943;DHT22;60852;52.190;4.422;2023-05-16T14:40:07;15.71;62.27
68943;DHT22;60852;52.190;4.422;2023-05-16T14:42:33;15.60;63.33
68943;DHT22;60852;52.190;4.422;2023-05-16T14:44:59;15.54;64.32
68943;DHT22;60852;52.190;4.422;2023-05-16T14:47:25;15.43;63.93
68943;DHT22;60852;52.190;4.422;2023-05-16T14:49:52;15.32;64.08
68943;DHT22;60852;52.190;4.422;2023-05-16T14:52:19;15.19;64.35
68943;DHT22;60852;52.190;4.422;2023-05-16T14:54:44;15.30;64.79
68943;DHT22;60852;52.190;4.422;2023-05-16T14:57:10;15.36;63.88
68943;DHT22;60852;52.190;4.422;2023-05-16T14:59:35;15.46;64.45
68943;DHT22;60852;52.190;4.422;2023-05-16T15:02:01;15.49;64.09
68943;DHT22;60852;52.190;4.422;2023-05-16T15:04:26;15.44;64.57
68943;DHT22;60852;52.190;4.422;2023-05-16T15:06:52;15.44;64.58
68943;DHT22;60852;52.190;4.422;2023-05-16T15:09:18;15.47;64.90
68943;DHT22;60852;52.190;4.422;2023-05-16T15:11:44;15.55;65.48
68943;DHT22;60852;52.190;4.422;2023-05-16T15:14:10;15.40;65.50
68943;DHT22;60852;52.190;4.422;2023-05-16T15:16:36;15.34;65.77
68943;DHT22;60852;52.190;4.422;2023-05-16T15:19:02;15.39;65.38
68943;DHT22;60852;52.190;4.422;2023-05-16T15:21:27;15.40;64.35
68943;DHT22;60852;52.190;4.422;2023-05-16T15:23:53;15.29;64.20
68943;DHT22;60852;52.190;4.422;2023-05-16T15:26:20;15.23;64.81
68943;DHT22;60852;52.190;4.422;2023-05-16T15:28:47;14.96;65.23
68943;DHT22;60852;52.190;4.422;2023-05-16T15:31:12;14.74;65.70
68943;DHT22;60852;52.190;4.422;2023-05-16T15:33:38;14.75;67.29
68943;DHT22;60852;52.190;4.422;2023-05-16T15:36:04;14.78;65.55
68943;DHT22;60852;52.190;4.422;2023-05-16T15:38:30;14.57;65.98
68943;DHT22;60852;52.190;4.422;2023-05-16T15:40:55;14.64;67.01
68943;DHT22;60852;52.190;4.422;2023-05-16T15:43:21;14.68;66.55